LRCL/CLJ METAR and TAF weather

Enter ICAO airport designator
Station Type Date Time Source
LRCL METAR 2024/06/14 01:30 UTC NOAA

LRCL 140130Z 27004KT 180V310 9999 -SHRA SCT011 SCT032CB OVC041 16/15 Q1012


Station Type Date Time Source
LRCL Decoded METAR 2024/06/14 01:30 UTC NOAA

Cluj-Napoca, Romania (LRCL) 46-47N 023-34E 413M
Jun 13, 2024 - 09:30 PM EDT / 2024.06.14 0130 UTC
Wind: from the W (270 degrees) at 5 MPH (4 KT) (direction variable):0
Visibility: greater than 7 mile(s):0
Sky conditions: overcast
Weather: light rain showers; Cumulonimbus clouds observed
Temperature: 60 F (16 C)
Dew Point: 59 F (15 C)
Relative Humidity: 93%
Pressure (altimeter): 29.88 in. Hg (1012 hPa)
ob: LRCL 140130Z 27004KT 180V310 9999 -SHRA SCT011 SCT032CB OVC041 16/15 Q1012
cycle: 1

Station Type Date Time Source
LRCL TAF 2007/05/23 16:57 UTC NOAA